Time;durP1;ratioP1;P1;durP2;ratioP2;P2;SDS_P1;SDS_P2;PMS_P1;PMS_P2;Temp;Humidity;BMP_temperature;BMP_pressure;BME280_temperature;BME280_humidity;BME280_pressure;Samples;Min_cycle;Max_cycle;Signal;HPM_P1;HPM_P2
2023/02/15 00:01:52;;;;;;;54.90;24.02;;;;;;;4.06;83.35;102459.06;5095283;28;20039;-53
2023/02/15 00:04:21;;;;;;;52.63;25.08;;;;;;;4.17;83.38;102458.59;5095715;28;20085;-54
2023/02/15 00:06:48;;;;;;;53.33;24.65;;;;;;;4.01;83.92;102463.66;5095747;28;20044;-53
2023/02/15 00:09:15;;;;;;;55.08;23.83;;;;;;;3.99;83.95;102442.72;5095474;28;20494;-55
2023/02/15 00:11:43;;;;;;;50.67;23.83;;;;;;;4.07;83.64;102446.78;5095487;28;20032;-54
2023/02/15 00:14:13;;;;;;;54.95;25.13;;;;;;;4.11;83.43;102445.72;5095577;28;20481;-53
2023/02/15 00:16:41;;;;;;;53.30;25.55;;;;;;;4.08;83.60;102438.84;5095484;28;20044;-53
2023/02/15 00:19:10;;;;;;;54.45;23.85;;;;;;;4.06;83.59;102442.44;5095198;28;20070;-50
2023/02/15 00:21:38;;;;;;;58.22;25.67;;;;;;;3.79;84.63;102437.53;5094889;28;20055;-53
2023/02/15 00:24:08;;;;;;;49.70;23.65;;;;;;;3.92;84.21;102443.09;5095096;28;20102;-52
2023/02/15 00:26:37;;;;;;;54.85;24.65;;;;;;;3.94;84.14;102447.34;5095506;28;20097;-51
2023/02/15 00:29:04;;;;;;;54.42;25.20;;;;;;;4.00;84.01;102440.94;5095238;28;20048;-51
2023/02/15 00:31:32;;;;;;;50.13;24.05;;;;;;;4.04;83.69;102440.75;5094105;28;20077;-52
2023/02/15 00:34:06;;;;;;;53.05;24.60;;;;;;;4.00;83.59;102430.44;5095130;28;20040;-52
2023/02/15 00:36:33;;;;;;;56.60;25.35;;;;;;;3.99;83.83;102428.75;5095234;28;20512;-53
2023/02/15 00:38:59;;;;;;;56.00;25.30;;;;;;;3.98;83.51;102430.53;5094896;28;20097;-50
2023/02/15 00:41:26;;;;;;;52.38;24.60;;;;;;;4.01;83.49;102427.75;5093855;28;20043;-53
2023/02/15 00:43:52;;;;;;;59.03;26.40;;;;;;;3.94;83.61;102436.81;5095039;28;20122;-53
2023/02/15 00:46:19;;;;;;;54.30;24.02;;;;;;;3.98;83.85;102433.16;5094955;28;20550;-54
2023/02/15 00:48:46;;;;;;;51.55;25.33;;;;;;;3.90;84.12;102422.13;5094910;28;20510;-54
2023/02/15 00:51:13;;;;;;;55.55;25.05;;;;;;;3.95;84.34;102421.94;5094795;28;20043;-53
2023/02/15 00:53:39;;;;;;;55.13;25.80;;;;;;;3.81;84.61;102425.19;5094486;28;20040;-53
2023/02/15 00:56:06;;;;;;;51.55;24.67;;;;;;;3.85;84.50;102430.22;5094649;28;20460;-54
2023/02/15 00:58:33;;;;;;;55.85;25.15;;;;;;;3.87;84.10;102422.28;5094810;28;20056;-53
2023/02/15 01:01:05;;;;;;;49.92;25.13;;;;;;;3.76;84.45;102422.75;5093475;28;20556;-54
2023/02/15 01:03:33;;;;;;;52.70;24.33;;;;;;;3.75;84.52;102418.44;5094461;28;20036;-52
2023/02/15 01:06:00;;;;;;;52.03;24.55;;;;;;;3.75;85.02;102423.69;5093613;28;20044;-53
2023/02/15 01:08:27;;;;;;;55.95;25.10;;;;;;;3.80;84.93;102418.22;5094384;28;20072;-54
2023/02/15 01:10:54;;;;;;;47.13;23.40;;;;;;;3.81;84.50;102425.19;5092169;28;20048;-54
2023/02/15 01:13:21;;;;;;;50.78;24.50;;;;;;;3.82;84.25;102419.00;5092783;28;20054;-51
2023/02/15 01:15:55;;;;;;;50.10;25.02;;;;;;;3.87;84.49;102421.44;5094202;28;20048;-53
2023/02/15 01:18:22;;;;;;;49.13;24.17;;;;;;;3.83;84.30;102423.34;5094212;28;20135;-53
2023/02/15 01:20:49;;;;;;;50.45;24.30;;;;;;;3.79;84.83;102421.78;5093978;28;20052;-51
2023/02/15 01:23:16;;;;;;;54.28;23.98;;;;;;;3.76;84.38;102419.28;5093714;28;20040;-52
2023/02/15 01:25:45;;;;;;;51.58;25.05;;;;;;;3.69;84.98;102421.31;5094346;28;20040;-53
2023/02/15 01:28:12;;;;;;;53.40;24.80;;;;;;;3.69;85.11;102420.47;5094256;28;20123;-52
2023/02/15 01:30:41;;;;;;;55.58;25.60;;;;;;;3.69;85.26;102421.31;5094118;28;20044;-51
2023/02/15 01:33:17;;;;;;;51.10;24.50;;;;;;;3.77;84.51;102421.84;5093979;28;20046;-53
2023/02/15 01:35:45;;;;;;;49.40;25.33;;;;;;;3.64;84.96;102413.66;5094250;28;20048;-52
2023/02/15 01:38:14;;;;;;;56.00;25.48;;;;;;;3.54;85.59;102411.50;5093519;28;20093;-52
2023/02/15 01:40:41;;;;;;;54.47;24.95;;;;;;;3.59;85.03;102417.41;5094039;28;20055;-53
2023/02/15 01:43:11;;;;;;;53.15;25.73;;;;;;;3.59;85.30;102413.00;5093752;28;20040;-53
2023/02/15 01:45:38;;;;;;;58.08;25.67;;;;;;;3.50;85.95;102408.16;5094027;28;20044;-52
2023/02/15 01:48:25;;;;;;;53.60;25.45;;;;;;;3.52;85.65;102416.81;5081860;28;20133;-52
2023/02/15 01:50:56;;;;;;;53.65;24.10;;;;;;;3.46;85.97;102406.59;5073448;28;20054;-51
2023/02/15 01:53:33;;;;;;;54.60;24.63;;;;;;;3.43;85.41;102398.88;5073548;28;20049;-53
2023/02/15 01:56:06;;;;;;;51.30;24.73;;;;;;;3.45;86.07;102400.50;5073694;28;20072;-52
2023/02/15 01:58:35;;;;;;;52.25;25.45;;;;;;;3.46;86.16;102396.13;5073129;28;20119;-52
2023/02/15 02:01:04;;;;;;;49.40;24.77;;;;;;;3.40;86.19;102391.13;5076573;28;20039;-53
2023/02/15 02:03:43;;;;;;;49.97;23.83;;;;;;;3.35;85.90;102388.72;5093582;28;20044;-53
2023/02/15 02:06:10;;;;;;;53.63;24.55;;;;;;;3.32;86.13;102390.63;5093643;28;20058;-53
2023/02/15 02:08:40;;;;;;;51.47;23.52;;;;;;;3.39;86.08;102378.94;5093295;28;20043;-54
2023/02/15 02:11:11;;;;;;;48.47;23.45;;;;;;;3.33;86.07;102381.81;5093152;28;20044;-53
2023/02/15 02:13:40;;;;;;;48.00;23.15;;;;;;;3.26;86.56;102373.38;5093721;28;20040;-53
2023/02/15 02:16:37;;;;;;;47.28;23.45;;;;;;;3.25;86.06;102369.88;5093311;28;20508;-53
2023/02/15 02:19:44;;;;;;;47.70;22.88;;;;;;;3.16;86.81;102361.56;5093257;28;20047;-52
2023/02/15 02:22:41;;;;;;;45.30;22.52;;;;;;;3.17;86.51;102360.66;5092780;28;20056;-52
2023/02/15 02:25:42;;;;;;;51.00;23.98;;;;;;;3.13;86.91;102362.56;5093057;28;20457;-52
2023/02/15 02:28:49;;;;;;;51.58;23.38;;;;;;;3.10;87.32;102370.56;5093209;28;20040;-53
2023/02/15 02:31:50;;;;;;;52.88;24.05;;;;;;;3.18;87.07;102363.19;5092909;28;20047;-53
2023/02/15 02:34:28;;;;;;;50.55;23.35;;;;;;;3.20;86.66;102358.75;5092959;28;20105;-51
2023/02/15 02:37:36;;;;;;;49.58;23.67;;;;;;;3.23;86.73;102349.91;5093185;28;20401;-55
2023/02/15 02:40:18;;;;;;;51.30;23.15;;;;;;;3.06;86.78;102346.22;5092895;28;20332;-54
2023/02/15 02:43:10;;;;;;;51.45;23.17;;;;;;;3.06;87.45;102338.38;5093031;28;20127;-53
2023/02/15 02:45:48;;;;;;;57.28;22.85;;;;;;;2.99;87.41;102339.53;5092940;28;20044;-51
2023/02/15 02:48:22;;;;;;;48.88;23.42;;;;;;;3.00;87.82;102332.53;5093202;28;20048;-52
2023/02/15 02:50:49;;;;;;;51.72;24.15;;;;;;;3.08;87.24;102339.16;5093061;28;20052;-52
2023/02/15 02:53:16;;;;;;;53.47;22.63;;;;;;;3.07;87.11;102334.84;5091688;28;20048;-53
2023/02/15 02:55:47;;;;;;;50.40;24.25;;;;;;;3.03;87.46;102333.25;5093251;28;20097;-53
2023/02/15 02:58:21;;;;;;;46.47;22.73;;;;;;;3.08;86.96;102327.81;5093065;28;20519;-53
2023/02/15 03:00:54;;;;;;;46.95;21.65;;;;;;;2.97;87.64;102324.81;5092267;28;20541;-53
2023/02/15 03:03:28;;;;;;;47.42;22.60;;;;;;;2.99;87.52;102317.72;5092520;28;20035;-53
2023/02/15 03:06:00;;;;;;;46.75;23.13;;;;;;;2.97;87.20;102320.41;5092855;28;20405;-52
2023/02/15 03:08:36;;;;;;;47.35;23.00;;;;;;;2.90;87.75;102315.50;5092818;28;20047;-54
2023/02/15 03:11:05;;;;;;;50.25;22.67;;;;;;;2.88;88.00;102313.78;5093120;28;20052;-53
2023/02/15 03:13:32;;;;;;;49.55;21.88;;;;;;;2.84;87.98;102306.13;5089934;28;20051;-55
2023/02/15 03:16:31;;;;;;;48.03;23.05;;;;;;;2.94;87.38;102314.44;5091870;28;20314;-51
2023/02/15 03:18:52;;;;;;;45.25;22.00;;;;;;;2.93;87.64;102310.09;5091578;28;20044;-54
2023/02/15 03:21:23;;;;;;;50.28;23.75;;;;;;;2.88;87.84;102305.91;5092398;28;20063;-54
2023/02/15 03:23:57;;;;;;;49.95;23.38;;;;;;;2.89;87.50;102301.53;5092531;28;20119;-53
2023/02/15 03:26:26;;;;;;;46.63;23.15;;;;;;;2.88;87.50;102307.69;5093093;28;20070;-54
2023/02/15 03:28:57;;;;;;;48.17;22.90;;;;;;;2.88;87.53;102311.16;5094945;28;20119;-55
2023/02/15 03:31:28;;;;;;;47.85;23.58;;;;;;;2.87;87.42;102304.25;5096519;28;20437;-55
2023/02/15 03:33:59;;;;;;;48.85;23.23;;;;;;;2.94;87.99;102303.97;5096225;28;20123;-54
2023/02/15 03:36:38;;;;;;;49.43;23.37;;;;;;;2.84;87.47;102300.91;5096582;28;20044;-53
2023/02/15 03:39:29;;;;;;;47.65;22.92;;;;;;;2.78;88.10;102309.84;5096146;28;20500;-54
2023/02/15 03:42:19;;;;;;;53.00;23.00;;;;;;;2.78;88.33;102315.09;5096419;28;20054;-54
2023/02/15 03:44:57;;;;;;;47.33;22.63;;;;;;;2.81;88.13;102317.59;5095668;28;20477;-57
2023/02/15 03:47:29;;;;;;;49.35;23.75;;;;;;;2.84;87.61;102308.75;5096080;28;20072;-51
2023/02/15 03:50:03;;;;;;;48.10;23.60;;;;;;;2.80;87.40;102310.66;5095973;28;20046;-54
2023/02/15 03:52:32;;;;;;;47.17;22.45;;;;;;;2.81;87.61;102311.50;5096120;28;20437;-55
2023/02/15 03:54:59;;;;;;;49.40;22.75;;;;;;;2.82;87.83;102303.56;5096095;28;20072;-53
2023/02/15 04:03:20;;;;;;;48.83;22.77;;;;;;;2.68;88.51;102298.06;5075219;28;20048;-53
2023/02/15 04:05:47;;;;;;;51.03;23.83;;;;;;;2.62;88.73;102296.56;5075302;28;20060;-54
2023/02/15 04:08:13;;;;;;;46.75;23.30;;;;;;;2.73;88.21;102293.50;5075357;28;20462;-53
2023/02/15 04:10:55;;;;;;;46.83;21.92;;;;;;;2.71;88.22;102294.44;5075295;28;20486;-54
2023/02/15 04:13:32;;;;;;;53.03;24.08;;;;;;;2.69;88.38;102290.16;5075693;28;20053;-54
2023/02/15 04:16:05;;;;;;;48.10;22.63;;;;;;;2.45;88.88;102293.78;5073860;28;20045;-54
2023/02/15 04:26:47;;;;;;;49.70;23.13;;;;;;;2.53;89.07;102303.94;5110789;28;20051;-53
2023/02/15 04:29:15;;;;;;;46.85;22.42;;;;;;;2.47;88.89;102297.19;5111261;28;20047;-53
2023/02/15 04:31:42;;;;;;;50.67;22.10;;;;;;;2.32;89.29;102297.81;5110390;28;20409;-52
2023/02/15 04:34:10;;;;;;;50.50;22.88;;;;;;;2.29;89.90;102299.66;5110746;28;20043;-53
2023/02/15 04:36:38;;;;;;;49.85;22.50;;;;;;;2.27;89.69;102296.25;5110858;28;20044;-53
2023/02/15 04:39:05;;;;;;;49.60;22.17;;;;;;;2.37;89.22;102301.13;5110534;28;20040;-51
2023/02/15 04:41:32;;;;;;;51.30;22.77;;;;;;;2.48;89.52;102297.13;5110922;28;20489;-52
2023/02/15 04:44:00;;;;;;;47.03;21.15;;;;;;;2.53;88.97;102294.31;5110732;28;20084;-53
2023/02/15 04:46:28;;;;;;;45.92;21.52;;;;;;;2.55;88.39;102282.00;5110503;28;20056;-53
2023/02/15 04:48:55;;;;;;;43.97;21.52;;;;;;;2.52;88.32;102279.50;5104697;28;20056;-53
2023/02/15 04:51:22;;;;;;;50.38;22.45;;;;;;;2.27;89.55;102280.53;5089968;28;20049;-51
2023/02/15 04:53:48;;;;;;;49.17;22.27;;;;;;;2.31;89.20;102289.13;5090132;28;20048;-51
2023/02/15 04:56:16;;;;;;;48.35;22.30;;;;;;;2.37;89.01;102290.63;5090232;28;20056;-50
2023/02/15 04:58:43;;;;;;;48.60;21.98;;;;;;;2.07;90.31;102291.81;5089741;28;20036;-53
2023/02/15 05:01:10;;;;;;;48.08;23.25;;;;;;;2.22;89.82;102289.47;5099190;28;20054;-53
2023/02/15 05:03:37;;;;;;;52.30;22.70;;;;;;;2.22;90.17;102295.59;5130687;28;20074;-53
2023/02/15 05:06:05;;;;;;;52.65;24.08;;;;;;;2.35;89.29;102290.69;5130978;28;20047;-52
2023/02/15 05:08:31;;;;;;;46.85;22.80;;;;;;;2.37;89.58;102277.53;5130439;28;20047;-52
2023/02/15 05:10:58;;;;;;;50.47;22.90;;;;;;;2.39;89.17;102280.94;5130921;28;20344;-52
2023/02/15 05:13:25;;;;;;;49.95;23.25;;;;;;;2.36;88.77;102275.81;5106206;28;20127;-52
2023/02/15 05:15:52;;;;;;;51.65;23.20;;;;;;;2.36;89.15;102271.44;5089681;28;20089;-53
2023/02/15 05:18:21;;;;;;;52.30;23.95;;;;;;;2.37;88.86;102274.94;5088977;28;20321;-53
2023/02/15 05:20:48;;;;;;;48.08;21.98;;;;;;;2.43;88.82;102278.13;5072052;28;20041;-52
2023/02/15 05:23:15;;;;;;;51.60;23.63;;;;;;;2.38;88.94;102271.38;5069081;28;20053;-52
2023/02/15 05:28:35;;;;;;;50.95;23.08;;;;;;;2.47;88.36;102270.97;5068885;28;20055;-54
2023/02/15 05:31:09;;;;;;;48.75;22.33;;;;;;;2.41;89.00;102261.63;5064410;28;20507;-54
2023/02/15 05:33:37;;;;;;;47.80;22.98;;;;;;;2.39;88.78;102265.22;5038166;28;20049;-54
2023/02/15 05:36:05;;;;;;;49.67;23.20;;;;;;;2.39;89.13;102266.06;5055997;28;20044;-53
2023/02/15 05:38:32;;;;;;;50.60;22.73;;;;;;;2.41;89.14;102263.41;5055746;28;20455;-52
2023/02/15 05:40:59;;;;;;;51.63;23.08;;;;;;;2.23;89.67;102267.63;5055829;28;20398;-52
2023/02/15 05:43:26;;;;;;;47.72;22.80;;;;;;;2.31;89.40;102262.94;5055542;28;20064;-54
2023/02/15 05:45:54;;;;;;;52.90;23.88;;;;;;;2.25;89.38;102256.16;5055440;28;20095;-54
2023/02/15 05:48:24;;;;;;;53.53;22.75;;;;;;;2.21;89.95;102265.06;5038262;28;20047;-53
2023/02/15 05:50:59;;;;;;;54.75;22.05;;;;;;;2.28;89.03;102248.19;5055544;28;20040;-52
2023/02/15 05:53:28;;;;;;;50.22;24.17;;;;;;;2.34;89.18;102256.72;5055728;28;20403;-52
2023/02/15 05:55:58;;;;;;;50.63;23.58;;;;;;;2.32;89.04;102256.75;5055243;28;20107;-52
2023/02/15 05:58:27;;;;;;;52.40;24.05;;;;;;;2.25;89.50;102250.91;5055219;28;20041;-54
2023/02/15 06:00:54;;;;;;;51.33;23.35;;;;;;;2.06;90.13;102258.69;5059787;28;20117;-53
2023/02/15 06:03:22;;;;;;;50.17;22.88;;;;;;;2.22;89.50;102251.06;5095743;28;20054;-52
2023/02/15 06:05:49;;;;;;;56.63;24.15;;;;;;;2.23;89.47;102262.38;5095607;28;20055;-54
2023/02/15 06:08:15;;;;;;;58.17;23.13;;;;;;;2.24;89.26;102253.63;5095588;28;20040;-53
2023/02/15 06:10:42;;;;;;;54.38;23.65;;;;;;;2.26;89.68;102262.28;5095154;28;20043;-54
2023/02/15 06:13:09;;;;;;;54.22;24.33;;;;;;;2.19;90.00;102274.75;5077360;28;20048;-53
2023/02/15 06:15:35;;;;;;;53.78;24.20;;;;;;;2.20;89.93;102275.59;5095443;28;20094;-54
2023/02/15 06:18:02;;;;;;;53.90;23.27;;;;;;;2.16;89.29;102272.25;5077384;28;20039;-54
2023/02/15 06:20:29;;;;;;;51.50;24.33;;;;;;;2.18;89.25;102277.41;5056097;28;20049;-54
2023/02/15 06:22:56;;;;;;;53.90;22.65;;;;;;;2.26;89.02;102281.44;5054373;28;20037;-54
2023/02/15 06:25:24;;;;;;;54.03;23.52;;;;;;;2.25;88.38;102279.72;5054616;28;20123;-54
2023/02/15 06:27:51;;;;;;;49.95;23.13;;;;;;;2.13;88.87;102274.13;5054497;28;20044;-53
2023/02/15 06:30:17;;;;;;;51.55;23.02;;;;;;;2.09;89.66;102276.91;5037216;28;20048;-52
2023/02/15 06:32:45;;;;;;;50.45;24.13;;;;;;;2.10;89.05;102277.75;5054462;28;20052;-52
2023/02/15 06:35:12;;;;;;;49.20;22.90;;;;;;;2.05;89.10;102280.53;5054980;28;20049;-52
2023/02/15 06:37:39;;;;;;;52.50;23.05;;;;;;;2.08;89.54;102276.97;5054310;28;20051;-53
2023/02/15 06:40:07;;;;;;;52.75;23.13;;;;;;;2.08;89.61;102272.56;5054320;28;20065;-54
2023/02/15 06:42:34;;;;;;;51.38;22.75;;;;;;;2.10;89.69;102283.81;5053287;28;20049;-53
2023/02/15 06:45:01;;;;;;;49.30;21.10;;;;;;;2.02;89.80;102277.19;5054149;28;20049;-53
2023/02/15 06:47:27;;;;;;;45.65;21.63;;;;;;;2.05;89.46;102283.16;5053762;28;20041;-54
2023/02/15 06:49:54;;;;;;;53.17;22.52;;;;;;;2.11;88.96;102276.81;5053703;28;20441;-53
2023/02/15 06:52:21;;;;;;;50.88;22.95;;;;;;;1.79;89.73;102276.34;5053970;28;20045;-54
2023/02/15 06:54:48;;;;;;;51.65;23.15;;;;;;;1.91;89.85;102270.63;5053853;28;20056;-53
2023/02/15 06:57:15;;;;;;;52.05;23.67;;;;;;;1.99;89.99;102272.94;5053667;28;20052;-53
2023/02/15 06:59:42;;;;;;;51.50;22.52;;;;;;;1.94;89.82;102264.41;5035917;28;20068;-53
2023/02/15 07:02:12;;;;;;;49.85;21.80;;;;;;;2.02;89.22;102266.72;5079867;28;20117;-54
2023/02/15 07:04:39;;;;;;;45.22;21.25;;;;;;;2.00;89.77;102271.16;5094148;28;20063;-54
2023/02/15 07:07:10;;;;;;;50.30;21.80;;;;;;;2.09;89.42;102276.03;5076225;28;20049;-54
2023/02/15 07:09:37;;;;;;;49.93;22.53;;;;;;;2.16;88.93;102271.41;5073884;28;20049;-54
2023/02/15 07:14:52;;;;;;;48.97;21.35;;;;;;;2.04;89.34;102270.16;5054186;28;20185;-54
2023/02/15 07:17:18;;;;;;;48.25;22.05;;;;;;;2.15;88.67;102269.69;5054040;28;20067;-53
2023/02/15 07:20:07;;;;;;;50.53;21.73;;;;;;;2.10;88.78;102272.50;5053104;28;20126;-53
2023/02/15 07:22:36;;;;;;;51.65;22.10;;;;;;;2.08;88.36;102269.94;5053423;28;20069;-52
2023/02/15 07:25:04;;;;;;;52.80;22.98;;;;;;;2.09;88.82;102268.16;5053215;28;20040;-53
2023/02/15 07:27:31;;;;;;;48.88;22.35;;;;;;;2.20;88.44;102249.41;5053644;28;20056;-54
2023/02/15 07:29:59;;;;;;;55.92;22.83;;;;;;;2.05;88.42;102254.34;5034523;28;20525;-53
2023/02/15 07:32:29;;;;;;;52.55;23.33;;;;;;;2.01;89.06;102244.94;5024378;28;20057;-54
2023/02/15 07:34:58;;;;;;;52.45;22.45;;;;;;;2.13;88.80;102251.44;5043743;28;20041;-54
2023/02/15 07:37:26;;;;;;;48.72;22.95;;;;;;;2.27;88.79;102243.00;5044039;28;20075;-54
2023/02/15 07:39:52;;;;;;;52.53;23.88;;;;;;;2.23;88.42;102244.91;5056246;28;20190;-53
2023/02/15 07:42:20;;;;;;;49.78;22.63;;;;;;;2.28;88.82;102236.88;5059440;28;20049;-54
2023/02/15 07:44:48;;;;;;;56.05;23.27;;;;;;;2.29;88.42;102228.94;5049197;28;20056;-54
2023/02/15 07:47:14;;;;;;;95.50;36.80;;;;;;;2.29;88.63;102228.94;5041162;28;20068;-53
2023/02/15 07:49:41;;;;;;;55.55;23.75;;;;;;;2.40;88.06;102228.50;5049650;28;20506;-51
2023/02/15 07:52:08;;;;;;;61.15;24.02;;;;;;;2.47;87.78;102215.97;5057242;28;20060;-50
2023/02/15 07:54:34;;;;;;;54.13;24.17;;;;;;;2.57;87.43;102226.94;5060115;28;20036;-49
2023/02/15 07:57:01;;;;;;;55.22;23.35;;;;;;;2.72;86.31;102217.56;5060620;28;20041;-50
2023/02/15 07:59:28;;;;;;;63.67;24.88;;;;;;;2.78;86.48;102215.50;5066118;28;20097;-49
2023/02/15 08:01:56;;;;;;;54.95;24.00;;;;;;;2.84;86.17;102219.63;5041403;28;20098;-50
2023/02/15 08:04:23;;;;;;;57.10;24.88;;;;;;;2.94;85.83;102215.66;5050002;28;20130;-53
2023/02/15 08:06:54;;;;;;;49.85;22.50;;;;;;;2.97;84.98;102210.31;5032705;28;20940;-51
2023/02/15 08:09:21;;;;;;;52.42;23.52;;;;;;;2.81;85.18;102207.50;5058292;28;20037;-50
2023/02/15 08:11:49;;;;;;;55.42;23.73;;;;;;;2.92;84.39;102209.66;5045897;28;20104;-52
2023/02/15 08:14:18;;;;;;;51.22;22.20;;;;;;;2.97;84.58;102225.19;5060309;28;20498;-50
2023/02/15 08:16:48;;;;;;;51.55;23.33;;;;;;;3.00;84.67;102215.41;5045982;28;20055;-54
2023/02/15 08:19:25;;;;;;;51.70;23.58;;;;;;;3.11;83.44;102208.81;5042064;28;20059;-51
2023/02/15 08:21:54;;;;;;;55.05;22.55;;;;;;;3.30;83.27;102212.31;5040775;28;20059;-51
2023/02/15 08:24:23;;;;;;;47.25;22.80;;;;;;;3.37;82.50;102215.50;5033302;28;20185;-50
2023/02/15 08:26:51;;;;;;;49.65;21.75;;;;;;;3.46;81.77;102208.03;5045675;28;20187;-50
2023/02/15 08:29:22;;;;;;;51.08;23.10;;;;;;;3.54;81.11;102202.44;5052386;28;20413;-50
2023/02/15 08:31:52;;;;;;;51.80;21.13;;;;;;;3.70;80.54;102199.09;5048747;28;20045;-51
2023/02/15 08:34:20;;;;;;;57.33;23.23;;;;;;;4.08;79.51;102197.22;5054996;28;20656;-50
2023/02/15 08:36:48;;;;;;;53.28;21.67;;;;;;;4.52;77.11;102199.34;5033254;28;21442;-50
2023/02/15 08:39:15;;;;;;;50.13;22.67;;;;;;;4.50;76.24;102201.22;5063221;28;20128;-51
2023/02/15 08:41:45;;;;;;;58.72;23.00;;;;;;;4.38;76.90;102199.22;5036924;28;20052;-51
2023/02/15 08:44:12;;;;;;;52.10;22.80;;;;;;;4.91;74.05;102205.22;5057572;28;20066;-50
2023/02/15 08:46:41;;;;;;;58.45;23.50;;;;;;;5.60;72.16;102201.47;5043929;28;20045;-51
2023/02/15 08:49:08;;;;;;;60.28;23.00;;;;;;;5.73;70.52;102196.34;5063271;28;20053;-53
2023/02/15 08:51:37;;;;;;;59.15;23.67;;;;;;;5.56;70.87;102195.53;5031943;28;20816;-53
2023/02/15 08:54:08;;;;;;;55.63;23.05;;;;;;;5.20;72.53;102195.78;5064205;28;20049;-52
2023/02/15 08:56:37;;;;;;;55.30;23.50;;;;;;;5.16;72.48;102196.88;5042091;28;22442;-54
2023/02/15 08:59:06;;;;;;;52.35;22.92;;;;;;;4.56;74.91;102186.91;5065485;28;20047;-52
2023/02/15 09:01:34;;;;;;;55.15;23.55;;;;;;;4.28;76.39;102195.38;5042656;28;20048;-53
2023/02/15 09:04:05;;;;;;;54.40;23.65;;;;;;;4.16;77.25;102192.41;5057835;28;20040;-52
2023/02/15 09:06:32;;;;;;;51.63;23.05;;;;;;;4.19;77.68;102192.25;5062537;28;20043;-52
2023/02/15 09:08:59;;;;;;;52.92;22.33;;;;;;;4.26;77.83;102187.56;5057269;28;20118;-54
2023/02/15 09:11:28;;;;;;;54.13;22.75;;;;;;;3.92;78.37;102185.75;5058013;28;20746;-54
2023/02/15 09:13:58;;;;;;;57.60;23.73;;;;;;;4.02;78.49;102187.88;5044354;28;20064;-53
2023/02/15 09:16:28;;;;;;;57.90;23.95;;;;;;;4.05;78.72;102189.47;5058208;28;20721;-52
2023/02/15 09:18:57;;;;;;;55.85;24.33;;;;;;;4.06;79.35;102188.56;5058375;28;20032;-54
2023/02/15 09:21:26;;;;;;;52.67;22.15;;;;;;;4.09;78.63;102188.38;5058754;28;20037;-50
2023/02/15 09:23:57;;;;;;;55.05;22.83;;;;;;;4.12;78.76;102187.41;5053052;28;20067;-53
2023/02/15 09:26:25;;;;;;;57.53;23.63;;;;;;;4.19;78.70;102194.03;5044331;28;20051;-52
2023/02/15 09:28:55;;;;;;;49.58;21.60;;;;;;;4.31;78.36;102198.69;5050904;28;20146;-55
2023/02/15 09:31:25;;;;;;;51.60;22.00;;;;;;;4.28;78.06;102193.59;5059423;28;20051;-52
2023/02/15 09:33:53;;;;;;;49.83;23.05;;;;;;;4.31;78.02;102192.56;5068579;28;20044;-52
2023/02/15 09:36:26;;;;;;;44.88;21.75;;;;;;;4.59;77.04;102198.13;5041651;28;20960;-53
2023/02/15 09:39:02;;;;;;;51.38;21.75;;;;;;;4.47;76.35;102198.75;5045094;28;20405;-53
2023/02/15 09:41:55;;;;;;;46.22;21.38;;;;;;;4.52;76.13;102204.59;5062714;28;20036;-53
2023/02/15 09:44:51;;;;;;;47.25;20.75;;;;;;;4.59;76.29;102200.75;5063071;28;20052;-54
2023/02/15 09:47:58;;;;;;;52.95;21.98;;;;;;;4.74;75.86;102199.09;5043040;28;20045;-52
2023/02/15 09:50:58;;;;;;;47.30;19.30;;;;;;;4.93;75.92;102198.97;5066486;28;20059;-53
2023/02/15 09:54:05;;;;;;;48.17;20.05;;;;;;;5.06;75.24;102193.03;5036497;28;20037;-53
2023/02/15 09:56:39;;;;;;;49.45;20.25;;;;;;;5.08;74.32;102194.66;5065449;28;20124;-50
2023/02/15 10:02:46;;;;;;;44.88;19.63;;;;;;;5.42;72.97;102202.50;5123482;27;20375;-51
2023/02/15 10:05:53;;;;;;;49.25;20.65;;;;;;;5.58;73.48;102198.06;5091675;28;20443;-52
2023/02/15 10:08:56;;;;;;;48.67;20.45;;;;;;;5.72;72.02;102187.63;5113491;27;20132;-53
2023/02/15 10:11:51;;;;;;;48.10;21.13;;;;;;;5.73;71.22;102189.31;5119318;28;20134;-53
2023/02/15 10:14:48;;;;;;;45.53;20.02;;;;;;;5.94;70.83;102179.31;5085545;28;20521;-53
2023/02/15 10:17:42;;;;;;;47.05;21.23;;;;;;;5.96;70.87;102177.47;5123734;28;20043;-53
2023/02/15 10:20:43;;;;;;;49.13;19.83;;;;;;;5.82;70.96;102182.69;5105527;28;20416;-53
2023/02/15 10:23:38;;;;;;;45.03;20.23;;;;;;;5.76;71.99;102181.22;5113226;28;20404;-53
2023/02/15 10:26:27;;;;;;;47.70;21.23;;;;;;;5.89;70.44;102180.53;5116500;28;20081;-53
2023/02/15 10:29:00;;;;;;;43.03;19.38;;;;;;;6.00;70.24;102183.44;5119342;28;20039;-53
2023/02/15 10:31:46;;;;;;;50.53;22.13;;;;;;;6.19;69.43;102185.00;5096135;28;20043;-53
2023/02/15 10:34:18;;;;;;;47.72;20.65;;;;;;;6.38;69.13;102187.38;5116076;28;20051;-52
2023/02/15 10:37:11;;;;;;;48.50;20.55;;;;;;;6.38;68.90;102182.97;5082105;28;20043;-53
2023/02/15 10:39:53;;;;;;;44.22;20.13;;;;;;;6.57;68.35;102181.84;5079785;28;20685;-53
2023/02/15 10:42:45;;;;;;;46.15;21.17;;;;;;;6.78;66.81;102177.06;5104089;28;20128;-53
2023/02/15 10:45:43;;;;;;;47.53;21.67;;;;;;;6.85;66.95;102178.38;5098624;27;20150;-54
2023/02/15 10:48:28;;;;;;;49.70;22.65;;;;;;;7.03;66.07;102176.41;5113143;28;20040;-54
2023/02/15 10:50:59;;;;;;;45.63;21.58;;;;;;;7.12;64.80;102170.56;5101397;28;20035;-53
2023/02/15 10:56:44;;;;;;;49.20;22.38;;;;;;;7.36;64.59;102170.78;5093665;27;20447;-53
2023/02/15 10:59:28;;;;;;;48.85;20.30;;;;;;;7.35;64.49;102170.88;5112136;27;20811;-52
2023/02/15 11:02:10;;;;;;;50.90;22.00;;;;;;;7.48;64.34;102162.06;5113791;28;20047;-53
2023/02/15 11:04:49;;;;;;;46.67;21.35;;;;;;;7.71;63.16;102169.44;5076999;27;20174;-53
2023/02/15 11:07:22;;;;;;;54.97;22.33;;;;;;;7.99;62.19;102158.75;5108102;28;20117;-55
2023/02/15 11:09:56;;;;;;;46.50;20.52;;;;;;;8.27;60.37;102168.28;5082715;28;20404;-53
2023/02/15 11:12:27;;;;;;;57.67;22.05;;;;;;;8.42;61.01;102161.16;5096765;28;20058;-52
2023/02/15 11:15:05;;;;;;;47.72;21.13;;;;;;;8.86;59.69;102174.03;5081484;28;20885;-53
2023/02/15 11:17:39;;;;;;;49.25;21.83;;;;;;;9.59;58.05;102166.09;5105142;28;20078;-52
2023/02/15 11:20:33;;;;;;;49.28;21.77;;;;;;;12.18;50.62;102169.69;5100699;28;20765;-53
2023/02/15 11:23:01;;;;;;;45.05;21.35;;;;;;;13.87;45.30;102172.66;5087914;28;20046;-54
2023/02/15 11:25:33;;;;;;;44.75;21.70;;;;;;;16.02;41.13;102179.75;5093061;28;20447;-53
2023/02/15 11:28:06;;;;;;;48.03;22.42;;;;;;;16.55;38.72;102177.94;5089163;28;20484;-53
2023/02/15 11:30:44;;;;;;;43.80;22.02;;;;;;;17.53;36.43;102183.69;5113510;28;20114;-54
2023/02/15 11:33:22;;;;;;;54.03;24.05;;;;;;;18.42;34.71;102173.16;5100555;28;20408;-54
2023/02/15 11:35:55;;;;;;;55.58;24.45;;;;;;;17.20;35.27;102170.22;5103745;28;20244;-55
2023/02/15 11:38:26;;;;;;;49.72;25.13;;;;;;;19.00;33.46;102155.00;5094331;28;20507;-54
2023/02/15 11:40:58;;;;;;;53.10;24.55;;;;;;;18.99;33.54;102161.38;5083308;28;20053;-54
2023/02/15 11:43:35;;;;;;;57.47;25.98;;;;;;;18.60;33.24;102146.88;5107064;28;20040;-54
2023/02/15 11:46:02;;;;;;;50.25;24.15;;;;;;;18.94;32.09;102150.34;5098610;27;21026;-54
2023/02/15 11:48:31;;;;;;;49.78;23.50;;;;;;;19.78;31.50;102146.97;5111742;28;20091;-54
2023/02/15 11:51:00;;;;;;;46.17;22.85;;;;;;;20.27;31.00;102139.25;5082013;28;20079;-55
2023/02/15 11:53:32;;;;;;;41.90;21.48;;;;;;;19.83;31.22;102147.25;5098410;28;20031;-55
2023/02/15 11:56:00;;;;;;;38.42;20.67;;;;;;;19.99;30.34;102133.63;5102681;28;20485;-56
2023/02/15 12:01:18;;;;;;;37.80;19.67;;;;;;;20.64;29.99;102136.69;5069937;27;20426;-54
2023/02/15 12:03:51;;;;;;;37.90;19.35;;;;;;;20.68;29.65;102122.66;5036320;28;20049;-54
2023/02/15 12:06:24;;;;;;;34.72;19.25;;;;;;;20.73;29.87;102115.88;5053955;28;20065;-53
2023/02/15 12:08:59;;;;;;;38.05;19.70;;;;;;;19.63;30.05;102107.34;5046477;28;20110;-53
2023/02/15 12:11:32;;;;;;;33.47;17.98;;;;;;;19.68;31.76;102104.97;5035615;28;20071;-53